Time;durP1;ratioP1;P1;durP2;ratioP2;P2;SDS_P1;SDS_P2;PMS_P1;PMS_P2;Temp;Humidity;BMP_temperature;BMP_pressure;BME280_temperature;BME280_humidity;BME280_pressure;Samples;Min_cycle;Max_cycle;Signal;HPM_P1;HPM_P2
2023/01/09 00:01:12;;;;;;;1.60;1.10;;;;;;;8.48;100.00;99285.63;4718905;30;20466;-69
2023/01/09 00:03:40;;;;;;;2.00;1.27;;;;;;;8.48;100.00;99280.19;4704138;30;20085;-69
2023/01/09 00:06:08;;;;;;;2.60;1.23;;;;;;;8.47;100.00;99284.03;4704172;30;20130;-69
2023/01/09 00:08:35;;;;;;;2.22;1.30;;;;;;;8.47;100.00;99284.03;4703874;30;20045;-70
2023/01/09 00:11:03;;;;;;;0.95;0.82;;;;;;;8.45;100.00;99286.22;4718954;30;20061;-69
2023/01/09 00:13:31;;;;;;;2.05;1.15;;;;;;;8.44;100.00;99287.31;4720218;30;20525;-69
2023/01/09 00:15:58;;;;;;;3.97;1.15;;;;;;;8.43;100.00;99291.13;4719160;30;20131;-69
2023/01/09 00:18:26;;;;;;;2.20;1.35;;;;;;;8.42;100.00;99275.94;4719156;30;20057;-69
2023/01/09 00:20:54;;;;;;;2.50;1.30;;;;;;;8.41;100.00;99279.75;4704383;30;20061;-67
2023/01/09 00:23:22;;;;;;;2.67;1.40;;;;;;;8.39;100.00;99287.34;4703891;30;20127;-69
2023/01/09 00:25:50;;;;;;;2.55;1.17;;;;;;;8.38;100.00;99288.44;4719272;30;20418;-69
2023/01/09 00:28:17;;;;;;;2.15;1.05;;;;;;;8.36;100.00;99298.78;4717243;30;21779;-68
2023/01/09 00:30:45;;;;;;;1.88;1.27;;;;;;;8.33;100.00;99299.38;4719380;30;20525;-69
2023/01/09 00:33:13;;;;;;;0.80;0.80;;;;;;;8.30;100.00;99294.53;4717489;30;20507;-68
2023/01/09 00:35:40;;;;;;;2.15;1.15;;;;;;;8.27;100.00;99295.09;4717948;30;20063;-69
2023/01/09 00:38:08;;;;;;;1.10;1.00;;;;;;;8.27;100.00;99292.38;4689222;30;20057;-69
2023/01/09 00:40:36;;;;;;;2.00;1.20;;;;;;;8.26;100.00;99309.75;4702666;30;20061;-69
2023/01/09 00:43:04;;;;;;;2.30;1.25;;;;;;;8.24;100.00;99301.09;4703584;30;20471;-69
2023/01/09 00:45:31;;;;;;;2.28;1.25;;;;;;;8.21;100.00;99296.25;4703619;30;20458;-70
2023/01/09 00:48:06;;;;;;;2.55;1.50;;;;;;;8.20;100.00;99292.75;4718444;30;20135;-68
2023/01/09 00:50:34;;;;;;;2.47;1.33;;;;;;;8.19;100.00;99298.44;4716858;30;20139;-69
2023/01/09 00:53:07;;;;;;;1.58;1.00;;;;;;;8.19;100.00;99298.44;4717538;30;20111;-68
2023/01/09 00:55:36;;;;;;;1.38;1.10;;;;;;;8.14;100.00;99306.66;4703911;30;20106;-69
2023/01/09 00:58:04;;;;;;;3.03;1.23;;;;;;;8.11;100.00;99308.84;4717909;30;20080;-69
2023/01/09 01:00:32;;;;;;;2.22;1.20;;;;;;;8.14;100.00;99312.09;4716327;30;20105;-69
2023/01/09 01:03:00;;;;;;;1.67;1.20;;;;;;;8.09;100.00;99316.47;4702565;30;20059;-69
2023/01/09 01:08:15;;;;;;;;;;;;;;;8.11;100.00;99319.69;4717710;30;20096;-69
2023/01/09 01:10:43;;;;;;;1.85;1.30;;;;;;;8.11;100.00;99316.97;4716158;30;19926;-69
2023/01/09 01:13:11;;;;;;;2.65;1.48;;;;;;;8.08;100.00;99320.28;4702861;30;20048;-69
2023/01/09 01:15:40;;;;;;;3.90;1.33;;;;;;;8.05;100.00;99326.25;4703115;30;20083;-69
2023/01/09 01:18:10;;;;;;;1.98;1.05;;;;;;;8.04;100.00;99332.78;4717581;30;20045;-69
2023/01/09 01:20:40;;;;;;;3.30;1.27;;;;;;;8.04;100.00;99321.94;4717435;30;20140;-69
2023/01/09 01:23:08;;;;;;;2.03;1.23;;;;;;;8.05;100.00;99323.53;4717274;30;20057;-69
2023/01/09 01:25:40;;;;;;;2.40;1.42;;;;;;;8.05;100.00;99325.47;4717122;30;20414;-70
2023/01/09 01:28:09;;;;;;;1.48;1.35;;;;;;;8.03;100.00;99323.06;4717627;30;20057;-69
2023/01/09 01:30:38;;;;;;;3.08;1.30;;;;;;;8.04;100.00;99324.66;4717461;30;20395;-69
2023/01/09 01:33:06;;;;;;;3.72;1.60;;;;;;;8.03;100.00;99333.91;4698125;30;20053;-69
2023/01/09 01:35:34;;;;;;;2.97;1.33;;;;;;;8.00;100.00;99329.03;4699551;30;20064;-70
2023/01/09 01:38:02;;;;;;;1.30;1.17;;;;;;;7.98;100.00;99330.41;4673356;30;20057;-69
2023/01/09 01:40:30;;;;;;;2.80;1.63;;;;;;;7.95;100.00;99325.56;4705365;30;20494;-68
2023/01/09 01:42:57;;;;;;;2.55;1.45;;;;;;;7.92;100.00;99332.38;4702394;30;20061;-69
2023/01/09 01:45:27;;;;;;;1.88;1.60;;;;;;;7.90;100.00;99334.56;4719395;30;20045;-69
2023/01/09 01:48:02;;;;;;;3.22;1.27;;;;;;;7.89;100.00;99331.06;4706401;30;20533;-69
2023/01/09 01:50:51;;;;;;;3.00;1.20;;;;;;;7.88;100.00;99331.34;4710265;30;20064;-67
2023/01/09 01:53:26;;;;;;;3.38;1.35;;;;;;;7.92;100.00;99320.75;4737406;30;20056;-63
2023/01/09 01:56:12;;;;;;;2.47;1.45;;;;;;;7.86;100.00;99330.81;4732118;30;20092;-68
2023/01/09 01:58:49;;;;;;;3.63;1.75;;;;;;;7.86;100.00;99319.97;4723682;30;20064;-68
2023/01/09 02:01:19;;;;;;;2.80;1.58;;;;;;;7.84;100.00;99333.81;4724107;30;20125;-60
2023/01/09 02:04:07;;;;;;;2.70;1.10;;;;;;;7.84;100.00;99339.25;4734847;30;20096;-68
2023/01/09 02:06:35;;;;;;;2.22;1.50;;;;;;;7.82;100.00;99337.91;4707914;30;20085;-69
2023/01/09 02:09:05;;;;;;;3.33;1.70;;;;;;;7.82;100.00;99337.91;4702373;30;20056;-68
2023/01/09 02:11:33;;;;;;;2.70;1.48;;;;;;;7.78;100.00;99345.81;4715994;30;20075;-67
2023/01/09 02:14:01;;;;;;;3.50;1.77;;;;;;;7.73;100.00;99356.69;4688044;30;20077;-68
2023/01/09 02:16:46;;;;;;;2.92;1.70;;;;;;;7.72;100.00;99346.13;4717908;30;20064;-68
2023/01/09 02:19:56;;;;;;;5.88;2.08;;;;;;;7.72;100.00;99343.41;4716796;30;20057;-69
2023/01/09 02:23:01;;;;;;;3.03;1.70;;;;;;;7.73;100.00;99350.47;4716823;30;20053;-68
2023/01/09 02:26:06;;;;;;;2.57;1.60;;;;;;;7.76;100.00;99341.75;4717852;30;20458;-69
2023/01/09 02:29:12;;;;;;;3.95;1.40;;;;;;;7.74;100.00;99343.94;4718297;30;20302;-68
2023/01/09 02:31:50;;;;;;;4.28;1.88;;;;;;;7.72;100.00;99348.84;4715433;30;20051;-69
2023/01/09 02:34:25;;;;;;;2.70;1.55;;;;;;;7.71;100.00;99347.22;4717106;30;20135;-68
2023/01/09 02:37:18;;;;;;;3.57;1.53;;;;;;;7.70;100.00;99351.84;4716297;30;20057;-68
2023/01/09 02:39:54;;;;;;;9.27;1.85;;;;;;;7.67;100.00;99358.66;4717200;30;20152;-68
2023/01/09 02:42:24;;;;;;;2.58;1.80;;;;;;;7.66;100.00;99365.16;4717381;30;20045;-68
2023/01/09 02:44:51;;;;;;;3.92;1.92;;;;;;;7.64;100.00;99359.19;4717184;30;20057;-68
2023/01/09 02:47:19;;;;;;;3.97;1.63;;;;;;;7.62;100.00;99355.97;4717472;30;20088;-68
2023/01/09 02:50:01;;;;;;;3.53;1.98;;;;;;;7.64;100.00;99348.34;4716749;30;20060;-69
2023/01/09 02:52:54;;;;;;;5.65;1.75;;;;;;;7.62;100.00;99350.53;4717996;30;20049;-68
2023/01/09 02:56:00;;;;;;;2.92;1.63;;;;;;;7.62;100.00;99349.75;4702634;30;20061;-68
2023/01/09 02:58:49;;;;;;;2.45;1.60;;;;;;;7.60;100.00;99350.03;4702687;30;20145;-69
2023/01/09 03:01:55;;;;;;;3.85;1.80;;;;;;;7.60;100.00;99351.91;4703329;30;20472;-68
2023/01/09 03:04:26;;;;;;;2.05;1.35;;;;;;;7.60;100.00;99346.50;4710909;30;20116;-69
2023/01/09 03:07:03;;;;;;;4.10;1.63;;;;;;;7.58;100.00;99343.28;4719046;30;20048;-68
2023/01/09 03:09:33;;;;;;;3.45;1.75;;;;;;;7.56;100.00;99340.06;4720897;30;20486;-68
2023/01/09 03:12:17;;;;;;;5.57;2.10;;;;;;;7.56;100.00;99335.44;4719188;30;20064;-68
2023/01/09 03:14:48;;;;;;;5.43;1.63;;;;;;;7.55;100.00;99333.81;4719419;30;20136;-68
2023/01/09 03:17:40;;;;;;;2.58;1.30;;;;;;;7.54;100.00;99343.03;4715190;30;20057;-68
2023/01/09 03:20:10;;;;;;;4.97;1.50;;;;;;;7.54;100.00;99331.41;4688156;30;20059;-68
2023/01/09 03:22:59;;;;;;;4.93;1.85;;;;;;;7.54;100.00;99334.09;4702434;30;20151;-69
2023/01/09 03:25:29;;;;;;;5.15;1.77;;;;;;;7.51;100.00;99337.38;4702438;30;20137;-69
2023/01/09 03:28:03;;;;;;;4.78;2.00;;;;;;;7.54;100.00;99340.31;4705649;30;20057;-69
2023/01/09 03:30:31;;;;;;;4.05;1.75;;;;;;;7.55;100.00;99339.25;4705987;30;20053;-69
2023/01/09 03:32:59;;;;;;;4.97;2.00;;;;;;;7.50;100.00;99341.16;4704814;30;20115;-68
2023/01/09 03:35:27;;;;;;;5.68;2.00;;;;;;;7.49;100.00;99334.94;4705659;30;20092;-69
2023/01/09 03:37:55;;;;;;;4.38;1.67;;;;;;;7.51;100.00;99338.19;4718738;30;20084;-69
2023/01/09 03:40:23;;;;;;;3.13;1.77;;;;;;;7.51;100.00;99348.22;4719640;30;20499;-69
2023/01/09 03:42:50;;;;;;;6.97;1.88;;;;;;;7.53;100.00;99341.44;4721123;30;20053;-68
2023/01/09 03:45:18;;;;;;;3.63;2.10;;;;;;;7.49;100.00;99340.38;4722297;30;20057;-69
2023/01/09 03:47:46;;;;;;;4.90;2.10;;;;;;;7.47;100.00;99337.13;4720308;30;20579;-69
2023/01/09 03:50:14;;;;;;;4.65;2.08;;;;;;;7.46;100.00;99338.25;4721341;30;20193;-69
2023/01/09 03:52:41;;;;;;;6.55;2.60;;;;;;;7.45;100.00;99342.03;4706926;30;20132;-68
2023/01/09 03:55:09;;;;;;;4.88;2.35;;;;;;;7.44;100.00;99338.50;4707257;30;20068;-69
2023/01/09 03:57:37;;;;;;;5.63;2.60;;;;;;;7.43;100.00;99336.06;4719558;30;20037;-69
2023/01/09 04:00:05;;;;;;;5.15;2.10;;;;;;;7.42;100.00;99345.31;4707709;30;20482;-68
2023/01/09 04:02:39;;;;;;;5.63;2.40;;;;;;;7.38;100.00;99338.81;4706867;30;20057;-69
2023/01/09 04:05:07;;;;;;;6.32;2.72;;;;;;;7.36;100.00;99335.59;4692398;30;20072;-69
2023/01/09 04:07:35;;;;;;;5.13;2.42;;;;;;;7.34;100.00;99338.59;4706142;30;20083;-69
2023/01/09 04:10:03;;;;;;;7.65;2.53;;;;;;;7.36;100.00;99330.16;4707031;30;20093;-69
2023/01/09 04:12:31;;;;;;;6.28;2.30;;;;;;;7.36;100.00;99336.41;4721222;30;20091;-69
2023/01/09 04:14:58;;;;;;;6.28;2.45;;;;;;;7.37;100.00;99331.81;4704393;30;20417;-68
2023/01/09 04:17:26;;;;;;;6.20;2.55;;;;;;;7.34;100.00;99335.09;4719021;30;20061;-68
2023/01/09 04:19:54;;;;;;;8.65;3.15;;;;;;;7.33;100.00;99338.88;4703236;30;20063;-69
2023/01/09 04:22:21;;;;;;;5.80;2.53;;;;;;;7.37;100.00;99331.81;4722587;30;20056;-67
2023/01/09 04:24:49;;;;;;;4.95;2.20;;;;;;;7.37;100.00;99339.94;4718979;30;20061;-68
2023/01/09 04:27:17;;;;;;;4.90;2.60;;;;;;;7.38;100.00;99338.81;4719918;30;20060;-68
2023/01/09 04:29:45;;;;;;;4.53;2.15;;;;;;;7.43;100.00;99338.78;4708136;30;20088;-68
2023/01/09 04:32:13;;;;;;;5.00;2.20;;;;;;;7.41;100.00;99338.28;4721543;30;20409;-69
2023/01/09 04:34:40;;;;;;;5.30;2.10;;;;;;;7.36;100.00;99341.00;4704616;30;20088;-68
2023/01/09 04:37:08;;;;;;;4.88;1.83;;;;;;;7.33;100.00;99341.59;4719562;30;20132;-68
2023/01/09 04:39:36;;;;;;;5.03;1.77;;;;;;;7.36;100.00;99343.72;4690231;30;20087;-68
2023/01/09 04:42:04;;;;;;;7.38;2.30;;;;;;;7.34;100.00;99345.94;4718651;30;20060;-68
2023/01/09 04:44:31;;;;;;;6.05;1.92;;;;;;;7.40;100.00;99348.28;4704307;30;20177;-69
2023/01/09 04:46:59;;;;;;;7.35;2.20;;;;;;;7.41;100.00;99349.94;4718543;30;20083;-69
2023/01/09 04:49:27;;;;;;;5.25;2.00;;;;;;;7.37;100.00;99358.91;4703753;30;20391;-68
2023/01/09 04:51:55;;;;;;;5.22;1.92;;;;;;;7.44;100.00;99353.97;4703703;30;20487;-69
2023/01/09 04:54:22;;;;;;;4.82;1.83;;;;;;;7.45;100.00;99355.56;4718256;30;20517;-70
2023/01/09 04:56:50;;;;;;;4.40;1.80;;;;;;;7.46;100.00;99351.78;4702599;30;20056;-68
2023/01/09 04:59:18;;;;;;;6.07;2.10;;;;;;;7.44;100.00;99348.53;4703435;30;20162;-69
2023/01/09 05:01:45;;;;;;;5.88;2.03;;;;;;;7.51;100.00;99350.94;4716949;30;20134;-69
2023/01/09 05:04:13;;;;;;;6.47;1.67;;;;;;;7.48;100.00;99349.59;4703438;30;20053;-69
2023/01/09 05:06:41;;;;;;;5.97;2.00;;;;;;;7.49;100.00;99356.63;4717805;30;20057;-69
2023/01/09 05:09:08;;;;;;;6.43;2.05;;;;;;;7.48;100.00;99352.31;4702285;30;20057;-70
2023/01/09 05:11:36;;;;;;;4.93;1.98;;;;;;;7.49;100.00;99351.22;4719008;30;20068;-68
2023/01/09 05:14:04;;;;;;;5.82;2.00;;;;;;;7.52;100.00;99345.22;4717524;30;20049;-69
2023/01/09 05:16:32;;;;;;;6.07;2.30;;;;;;;7.56;100.00;99351.69;4717587;30;20056;-69
2023/01/09 05:18:59;;;;;;;6.68;2.08;;;;;;;7.55;100.00;99355.50;4702834;30;20060;-69
2023/01/09 05:21:27;;;;;;;4.63;1.52;;;;;;;7.57;100.00;99353.31;4690073;30;20064;-70
2023/01/09 05:23:55;;;;;;;5.28;1.90;;;;;;;7.60;100.00;99346.50;4719008;30;20057;-69
2023/01/09 05:26:23;;;;;;;8.05;2.25;;;;;;;7.56;100.00;99345.47;4704472;30;20061;-66
2023/01/09 05:28:57;;;;;;;6.15;2.20;;;;;;;7.59;100.00;99345.69;4723999;30;20082;-65
2023/01/09 05:31:26;;;;;;;4.50;1.70;;;;;;;7.56;100.00;99351.69;4738466;30;20049;-68
2023/01/09 05:33:54;;;;;;;5.20;1.80;;;;;;;7.63;100.00;99344.03;4721057;30;20052;-68
2023/01/09 05:36:21;;;;;;;5.47;1.73;;;;;;;7.63;100.00;99338.63;4731727;30;20065;-61
2023/01/09 05:38:49;;;;;;;6.35;2.20;;;;;;;7.68;100.00;99341.28;4736328;30;20061;-66
2023/01/09 05:41:16;;;;;;;7.05;2.17;;;;;;;7.68;100.00;99333.16;4716070;30;20531;-68
2023/01/09 05:43:44;;;;;;;7.00;1.98;;;;;;;7.64;100.00;99334.81;4703715;30;20084;-69
2023/01/09 05:46:12;;;;;;;5.40;2.03;;;;;;;7.66;100.00;99332.63;4717660;30;20092;-69
2023/01/09 05:48:40;;;;;;;4.78;1.85;;;;;;;7.68;100.00;99327.72;4702911;30;20059;-69
2023/01/09 05:51:07;;;;;;;6.25;1.92;;;;;;;7.67;100.00;99326.13;4717416;30;20049;-69
2023/01/09 05:53:35;;;;;;;5.97;1.95;;;;;;;7.63;100.00;99322.34;4717595;30;20079;-69
2023/01/09 05:56:03;;;;;;;5.90;1.90;;;;;;;7.63;100.00;99322.34;4702897;30;20080;-68
2023/01/09 05:58:31;;;;;;;8.15;2.05;;;;;;;7.70;100.00;99324.75;4718588;30;20056;-69
2023/01/09 06:00:58;;;;;;;5.13;2.08;;;;;;;7.79;100.00;99322.19;4718385;30;20057;-69
2023/01/09 06:03:26;;;;;;;5.65;2.30;;;;;;;7.70;100.00;99319.31;4704907;30;20490;-70
2023/01/09 06:05:54;;;;;;;10.50;2.65;;;;;;;7.64;100.00;99332.09;4719676;30;20057;-70
2023/01/09 06:08:22;;;;;;;5.38;2.10;;;;;;;7.71;100.00;99314.69;4720679;30;20119;-70
2023/01/09 06:10:50;;;;;;;6.40;2.10;;;;;;;7.73;100.00;99313.31;4723687;30;20104;-70
2023/01/09 06:13:17;;;;;;;5.35;1.90;;;;;;;8.11;100.00;99308.84;4715391;30;20080;-70
2023/01/09 06:15:47;;;;;;;6.15;2.35;;;;;;;8.11;100.00;99319.69;4708926;30;20056;-70
2023/01/09 06:18:21;;;;;;;6.47;1.85;;;;;;;8.21;100.00;99312.53;4607742;30;10000826;-71
2023/01/09 06:20:49;;;;;;;4.50;2.00;;;;;;;8.25;100.00;99314.38;4691477;30;20276;-71
2023/01/09 06:23:17;;;;;;;7.57;2.20;;;;;;;8.16;100.00;99315.31;4720765;30;20076;-71
2023/01/09 06:25:44;;;;;;;6.55;2.47;;;;;;;8.15;100.00;99314.50;4720969;30;20073;-73
2023/01/09 06:28:12;;;;;;;8.68;2.67;;;;;;;8.11;100.00;99322.41;4707200;30;20072;-72
2023/01/09 06:30:40;;;;;;;7.75;2.38;;;;;;;8.09;100.00;99321.88;4719680;30;20053;-70
2023/01/09 06:33:07;;;;;;;8.02;2.25;;;;;;;8.08;100.00;99316.75;4716231;30;20045;-70
2023/01/09 06:35:35;;;;;;;8.07;2.30;;;;;;;8.23;100.00;99323.91;4723127;30;20113;-71
2023/01/09 06:38:03;;;;;;;10.55;2.03;;;;;;;8.08;100.00;99325.72;4723757;30;20049;-70
2023/01/09 06:40:31;;;;;;;7.40;2.38;;;;;;;8.11;100.00;99321.59;4725865;30;20369;-70
2023/01/09 06:42:58;;;;;;;8.27;2.47;;;;;;;8.16;100.00;99320.75;4717375;30;20127;-70
2023/01/09 06:45:27;;;;;;;4.88;2.15;;;;;;;8.21;100.00;99315.25;4696743;30;20057;-69
2023/01/09 06:47:55;;;;;;;9.95;3.03;;;;;;;8.15;100.00;99321.81;4696037;30;20157;-70
2023/01/09 06:50:23;;;;;;;10.63;2.90;;;;;;;8.02;100.00;99312.47;4699277;30;20553;-70
2023/01/09 06:52:51;;;;;;;10.63;2.65;;;;;;;7.97;100.00;99315.25;4713774;30;20056;-70
2023/01/09 06:55:18;;;;;;;11.65;2.70;;;;;;;8.01;100.00;99319.81;4710115;30;20413;-69
2023/01/09 06:57:47;;;;;;;5.07;1.75;;;;;;;8.13;100.00;99315.88;4683562;30;20049;-70
2023/01/09 07:00:15;;;;;;;7.60;2.17;;;;;;;8.53;100.00;99306.47;4696266;30;20071;-70
2023/01/09 07:02:44;;;;;;;8.18;2.00;;;;;;;8.43;100.00;99310.13;4697926;30;20064;-70
2023/01/09 07:05:12;;;;;;;7.80;2.03;;;;;;;8.52;100.00;99311.09;4698671;30;20084;-69
2023/01/09 07:07:40;;;;;;;10.25;2.95;;;;;;;8.15;100.00;99324.53;4714360;30;20061;-68
2023/01/09 07:10:09;;;;;;;8.82;2.63;;;;;;;7.86;100.00;99333.50;4697558;30;20084;-68
2023/01/09 07:12:37;;;;;;;9.43;3.10;;;;;;;7.74;100.00;99325.78;4670243;30;20057;-70
2023/01/09 07:15:05;;;;;;;8.27;2.70;;;;;;;7.63;100.00;99326.97;4701382;30;20057;-70
2023/01/09 07:17:33;;;;;;;9.57;2.80;;;;;;;7.56;100.00;99324.59;4716273;30;20180;-70
2023/01/09 07:20:01;;;;;;;7.63;2.70;;;;;;;7.51;100.00;99329.25;4700076;30;20080;-69
2023/01/09 07:22:29;;;;;;;9.85;2.85;;;;;;;7.53;100.00;99335.19;4716556;30;20053;-68
2023/01/09 07:24:56;;;;;;;12.63;2.97;;;;;;;7.53;100.00;99336.00;4716285;30;20088;-70
2023/01/09 07:27:24;;;;;;;9.30;3.25;;;;;;;7.50;100.00;99328.44;4700158;30;20564;-70
2023/01/09 07:29:52;;;;;;;8.57;2.63;;;;;;;7.50;100.00;99341.97;4716135;30;20045;-70
2023/01/09 07:32:20;;;;;;;86.72;19.55;;;;;;;7.58;100.00;99337.88;4698245;30;20115;-71
2023/01/09 07:34:50;;;;;;;12.05;4.07;;;;;;;7.71;100.00;99348.03;4708674;30;20506;-69
2023/01/09 07:37:18;;;;;;;13.88;3.83;;;;;;;7.75;100.00;99345.56;4716528;30;20144;-71
2023/01/09 07:39:45;;;;;;;15.60;4.47;;;;;;;7.75;100.00;99349.09;4720292;30;20064;-71
2023/01/09 07:42:14;;;;;;;10.07;3.17;;;;;;;7.71;100.00;99348.03;4721900;30;20124;-71
2023/01/09 07:44:41;;;;;;;13.55;4.30;;;;;;;7.72;100.00;99354.25;4690903;30;20057;-73
2023/01/09 07:47:09;;;;;;;14.80;4.63;;;;;;;7.79;100.00;99363.69;4691011;30;20057;-71
2023/01/09 07:49:39;;;;;;;19.55;6.13;;;;;;;7.95;100.00;99367.06;4719367;30;20057;-71
2023/01/09 07:52:07;;;;;;;13.45;4.32;;;;;;;7.92;100.00;99369.56;4720492;30;20088;-70
2023/01/09 07:54:35;;;;;;;26.05;7.47;;;;;;;7.99;100.00;99386.28;4720742;30;20053;-69
2023/01/09 07:57:03;;;;;;;12.95;4.20;;;;;;;7.93;100.00;99376.56;4718738;30;20057;-69
2023/01/09 07:59:30;;;;;;;12.00;4.13;;;;;;;7.83;100.00;99377.47;4720013;30;20132;-68
2023/01/09 08:01:59;;;;;;;14.05;4.18;;;;;;;7.81;100.00;99379.66;4719139;30;20495;-68
2023/01/09 08:04:27;;;;;;;15.82;5.22;;;;;;;7.77;100.00;99384.03;4718891;30;20525;-69
2023/01/09 08:06:55;;;;;;;17.77;5.97;;;;;;;7.72;100.00;99392.22;4704357;30;20091;-69
2023/01/09 08:09:23;;;;;;;9.38;3.35;;;;;;;7.76;100.00;99391.38;4704155;30;20168;-69
2023/01/09 08:11:51;;;;;;;15.70;4.85;;;;;;;7.78;100.00;99399.22;4719471;30;20379;-69
2023/01/09 08:14:18;;;;;;;12.77;4.10;;;;;;;7.74;100.00;99414.44;4718891;30;20059;-72
2023/01/09 08:16:46;;;;;;;13.98;4.35;;;;;;;7.77;100.00;99400.31;4715314;30;20120;-72
2023/01/09 08:19:15;;;;;;;8.60;3.00;;;;;;;7.71;100.00;99415.00;4715744;30;20095;-71
2023/01/09 08:21:42;;;;;;;6.65;2.58;;;;;;;7.63;100.00;99419.94;4701675;30;20124;-68
2023/01/09 08:24:10;;;;;;;13.27;4.05;;;;;;;7.82;100.00;99419.25;4702385;30;20089;-69
2023/01/09 08:26:38;;;;;;;8.63;2.90;;;;;;;7.75;100.00;99419.59;4686512;30;20057;-69
2023/01/09 08:29:05;;;;;;;10.30;3.20;;;;;;;7.68;100.00;99430.75;4715675;30;20058;-68
2023/01/09 08:31:33;;;;;;;10.40;3.60;;;;;;;7.68;100.00;99428.03;4686979;30;20130;-69
2023/01/09 08:34:01;;;;;;;14.43;4.30;;;;;;;7.69;100.00;99437.78;4703299;30;20049;-69
2023/01/09 08:36:29;;;;;;;10.73;3.70;;;;;;;7.74;100.00;99438.84;4675537;30;20084;-69
2023/01/09 08:38:57;;;;;;;10.23;3.22;;;;;;;7.83;100.00;99442.56;4719352;30;20064;-69
2023/01/09 08:47:06;;;;;;;10.60;3.50;;;;;;;7.82;100.00;99460.75;4706388;30;20132;-69
2023/01/09 08:49:37;;;;;;;8.40;2.63;;;;;;;7.75;100.00;99462.97;4719540;30;20052;-68
2023/01/09 08:52:06;;;;;;;7.15;2.70;;;;;;;7.64;100.00;99473.06;4717883;30;20473;-70
2023/01/09 08:54:38;;;;;;;9.45;3.03;;;;;;;7.53;100.00;99482.38;4718396;30;20461;-69
2023/01/09 08:57:07;;;;;;;10.05;2.83;;;;;;;7.58;100.00;99495.06;4704688;30;20422;-69
2023/01/09 08:59:35;;;;;;;8.80;2.95;;;;;;;7.56;100.00;99503.47;4718957;30;20115;-70
2023/01/09 09:02:03;;;;;;;13.15;3.22;;;;;;;7.62;100.00;99507.75;4704422;30;20522;-69
2023/01/09 09:04:31;;;;;;;6.28;2.83;;;;;;;7.55;100.00;99512.72;4716078;30;20053;-62
2023/01/09 09:06:59;;;;;;;8.40;2.42;;;;;;;7.50;100.00;99525.47;4723479;30;20053;-68
2023/01/09 09:09:27;;;;;;;7.75;2.78;;;;;;;7.48;100.00;99523.06;4730554;30;20405;-68
2023/01/09 09:11:54;;;;;;;5.72;2.88;;;;;;;7.51;100.00;99521.69;4707997;30;20073;-68
2023/01/09 09:17:09;;;;;;;9.00;3.38;;;;;;;7.59;100.00;99535.44;4739085;30;20068;-68
2023/01/09 09:19:38;;;;;;;8.50;3.15;;;;;;;7.56;100.00;99549.56;4704385;30;20132;-69
2023/01/09 09:22:06;;;;;;;6.47;2.70;;;;;;;7.56;100.00;99540.63;4703861;30;20561;-68
2023/01/09 09:24:33;;;;;;;6.40;2.35;;;;;;;7.52;100.00;99544.97;4721876;30;20057;-68
2023/01/09 09:27:02;;;;;;;6.55;2.67;;;;;;;7.50;100.00;99545.25;4719214;30;20057;-68
2023/01/09 09:29:29;;;;;;;8.25;3.13;;;;;;;7.51;100.00;99554.19;4719625;30;20132;-68
2023/01/09 09:31:57;;;;;;;8.90;3.30;;;;;;;7.50;100.00;99557.97;4717947;30;20478;-68
2023/01/09 09:34:27;;;;;;;9.60;3.50;;;;;;;7.54;100.00;99545.50;4719394;30;20462;-68
2023/01/09 09:36:55;;;;;;;6.95;2.60;;;;;;;7.64;100.00;99545.44;4717902;30;20111;-69
2023/01/09 09:39:23;;;;;;;12.30;3.83;;;;;;;7.74;100.00;99547.28;4717577;30;20525;-68
2023/01/09 09:45:35;;;;;;;7.20;2.65;;;;;;;7.65;100.00;99566.84;4717796;30;20137;-69
2023/01/09 09:48:09;;;;;;;7.45;2.58;;;;;;;7.63;100.00;99584.50;4702300;30;20059;-68
2023/01/09 09:50:55;;;;;;;6.75;2.60;;;;;;;7.65;100.00;99590.44;4718468;30;20075;-69
2023/01/09 09:53:38;;;;;;;6.35;2.72;;;;;;;7.60;100.00;99607.56;4717298;30;20115;-69
2023/01/09 09:56:09;;;;;;;6.47;2.80;;;;;;;7.68;100.00;99604.25;4685301;30;20049;-69
2023/01/09 09:58:39;;;;;;;9.93;2.88;;;;;;;7.64;100.00;99619.44;4685751;30;20492;-69
2023/01/09 10:01:09;;;;;;;9.43;3.13;;;;;;;7.61;100.00;99614.59;4671064;30;20054;-69
2023/01/09 10:03:48;;;;;;;9.48;3.20;;;;;;;7.62;100.00;99618.91;4686374;30;20060;-69
2023/01/09 10:06:32;;;;;;;8.85;3.13;;;;;;;7.65;100.00;99626.50;4717030;30;20128;-69
2023/01/09 10:09:12;;;;;;;8.32;3.08;;;;;;;7.65;100.00;99629.22;4717422;30;20064;-69
2023/01/09 10:12:02;;;;;;;7.95;3.22;;;;;;;7.68;100.00;99631.34;4716778;30;20077;-69
2023/01/09 10:14:31;;;;;;;10.38;3.60;;;;;;;7.67;100.00;99639.75;4703024;30;20049;-69
2023/01/09 10:17:16;;;;;;;8.02;3.15;;;;;;;7.73;100.00;99643.28;4717161;30;20148;-69
2023/01/09 10:19:57;;;;;;;10.82;3.10;;;;;;;7.73;100.00;99646.00;4716964;30;20049;-68
2023/01/09 10:22:58;;;;;;;10.00;2.88;;;;;;;7.69;100.00;99659.28;4717400;30;20421;-68
2023/01/09 10:25:32;;;;;;;6.30;2.65;;;;;;;7.71;100.00;99661.72;4688610;30;20100;-69
2023/01/09 10:28:02;;;;;;;7.20;3.30;;;;;;;7.74;100.00;99656.53;4702866;30;20087;-68
2023/01/09 10:30:38;;;;;;;7.97;3.15;;;;;;;7.75;100.00;99660.09;4718466;30;20088;-68
2023/01/09 10:33:29;;;;;;;9.35;3.53;;;;;;;7.69;100.00;99667.41;4702947;30;20064;-68
2023/01/09 10:36:21;;;;;;;9.38;3.40;;;;;;;7.69;100.00;99668.22;4716996;30;20053;-69
2023/01/09 10:38:52;;;;;;;9.35;3.22;;;;;;;7.73;100.00;99670.38;4718081;30;20483;-69
2023/01/09 10:41:31;;;;;;;9.73;3.28;;;;;;;7.68;100.00;99680.16;4717602;30;20135;-70
2023/01/09 10:44:22;;;;;;;10.20;3.47;;;;;;;7.71;100.00;99678.00;4707052;30;20068;-69
2023/01/09 10:46:54;;;;;;;8.07;3.15;;;;;;;7.78;100.00;99682.03;4707991;30;20061;-69
2023/01/09 10:49:23;;;;;;;9.70;3.10;;;;;;;7.73;100.00;99676.63;4703162;30;20064;-70
2023/01/09 10:52:07;;;;;;;7.78;3.30;;;;;;;7.81;100.00;99683.34;4688429;30;20068;-69
2023/01/09 10:54:37;;;;;;;7.97;3.35;;;;;;;7.80;100.00;99682.56;4724447;30;20059;-69
2023/01/09 10:57:15;;;;;;;9.13;3.05;;;;;;;7.81;100.00;99689.59;4688940;30;20065;-69
2023/01/09 10:59:42;;;;;;;11.52;3.25;;;;;;;7.75;100.00;99687.19;4717845;30;20077;-68
2023/01/09 11:02:43;;;;;;;6.78;3.08;;;;;;;7.71;100.00;99686.94;4717914;30;20498;-68
2023/01/09 11:05:22;;;;;;;10.77;3.38;;;;;;;7.74;100.00;99688.28;4648382;30;20121;-68
2023/01/09 11:08:17;;;;;;;9.10;3.30;;;;;;;7.75;100.00;99695.34;4670971;30;20483;-68
2023/01/09 11:10:51;;;;;;;11.03;3.47;;;;;;;7.72;100.00;99701.28;4717767;30;20144;-69
2023/01/09 11:13:33;;;;;;;8.68;2.65;;;;;;;7.79;100.00;99705.34;4689527;30;20156;-69
2023/01/09 11:16:12;;;;;;;10.52;3.40;;;;;;;7.81;100.00;99705.06;4705518;30;20406;-69
2023/01/09 11:18:49;;;;;;;10.77;3.97;;;;;;;7.81;100.00;99705.84;4705604;30;20608;-68
2023/01/09 11:21:40;;;;;;;7.88;3.10;;;;;;;7.81;100.00;99705.06;4691842;30;20056;-68
2023/01/09 11:24:17;;;;;;;11.25;3.55;;;;;;;7.83;100.00;99716.44;4705718;30;20495;-68
2023/01/09 11:26:46;;;;;;;11.60;3.30;;;;;;;7.77;100.00;99720.25;4690930;30;20065;-69
2023/01/09 11:29:16;;;;;;;9.98;3.28;;;;;;;7.81;100.00;99715.91;4720238;30;20053;-68
2023/01/09 11:31:54;;;;;;;7.95;3.00;;;;;;;7.84;100.00;99716.19;4719172;30;20061;-68
2023/01/09 11:34:27;;;;;;;9.05;3.13;;;;;;;7.83;100.00;99724.56;4720756;30;20413;-68
2023/01/09 11:37:07;;;;;;;11.77;3.72;;;;;;;7.84;100.00;99727.03;4704932;30;20060;-69
2023/01/09 11:39:40;;;;;;;8.02;3.00;;;;;;;7.87;100.00;99731.06;4705104;30;20053;-69
2023/01/09 11:45:16;;;;;;;8.73;3.28;;;;;;;7.87;100.00;99725.66;4691059;30;20050;-68
2023/01/09 11:47:46;;;;;;;13.57;3.75;;;;;;;7.86;100.00;99732.16;4689214;30;20127;-69
2023/01/09 11:50:29;;;;;;;10.70;3.53;;;;;;;7.85;100.00;99738.69;4719559;30;20083;-69
2023/01/09 11:53:17;;;;;;;9.90;3.45;;;;;;;7.86;100.00;99727.56;4719327;30;20471;-68
2023/01/09 11:55:46;;;;;;;9.90;3.50;;;;;;;7.92;100.00;99727.53;4719568;30;20091;-69
2023/01/09 11:58:17;;;;;;;8.73;3.35;;;;;;;7.92;100.00;99728.34;4718373;30;20091;-68
2023/01/09 12:01:05;;;;;;;13.20;3.78;;;;;;;7.90;100.00;99735.94;4704433;30;20494;-69
2023/01/09 12:03:47;;;;;;;8.57;3.28;;;;;;;7.89;100.00;99740.56;4718531;30;20063;-69
2023/01/09 12:06:43;;;;;;;12.23;3.80;;;;;;;7.89;100.00;99745.19;4718905;30;20049;-69
2023/01/09 12:09:23;;;;;;;11.02;3.30;;;;;;;7.84;100.00;99742.47;4704190;30;20095;-69
2023/01/09 12:12:07;;;;;;;11.73;3.40;;;;;;;7.86;100.00;99749.25;4719824;30;20065;-69